createdAt,value
2023-03-21T00:04:48.449Z,28.65
2023-03-21T00:09:59.097Z,29.70
2023-03-21T00:15:10.554Z,28.00
2023-03-21T00:20:15.205Z,28.92
2023-03-21T00:25:18.564Z,29.63
2023-03-21T00:30:22.761Z,26.63
2023-03-21T00:35:57.550Z,27.35
2023-03-21T00:40:53.896Z,26.30
2023-03-21T00:45:59.295Z,27.43
2023-03-21T00:51:03.332Z,26.58
2023-03-21T00:56:06.852Z,26.20
2023-03-21T01:01:10.515Z,26.73
2023-03-21T01:06:14.245Z,29.30
2023-03-21T01:11:21.313Z,28.38
2023-03-21T01:16:25.881Z,27.95
2023-03-21T01:21:29.447Z,27.25
2023-03-21T01:26:33.356Z,27.83
2023-03-21T01:31:36.921Z,26.70
2023-03-21T01:36:40.145Z,26.25
2023-03-21T01:41:48.690Z,25.85
2023-03-21T01:47:13.027Z,26.40
2023-03-21T01:52:40.777Z,25.13
2023-03-21T01:58:04.982Z,24.30
2023-03-21T02:03:35.075Z,22.50
2023-03-21T02:08:59.194Z,24.15
2023-03-21T02:14:06.790Z,21.50
2023-03-21T02:19:41.650Z,23.90
2023-03-21T02:25:22.633Z,20.05
2023-03-21T02:31:05.876Z,19.52
2023-03-21T02:36:14.363Z,18.20
2023-03-21T02:41:50.255Z,17.00
2023-03-21T02:47:35.488Z,17.65
2023-03-21T02:52:45.881Z,17.92
2023-03-21T02:57:52.508Z,19.08
2023-03-21T03:03:08.175Z,17.87
2023-03-21T03:08:53.050Z,15.80
2023-03-21T03:14:42.055Z,14.00
2023-03-21T03:20:16.582Z,13.77
2023-03-21T03:25:41.914Z,11.32
2023-03-21T03:31:07.669Z,11.68
2023-03-21T03:36:30.895Z,12.18
2023-03-21T03:42:27.566Z,11.05
2023-03-21T03:47:56.879Z,11.85
2023-03-21T03:53:35.551Z,11.43
2023-03-21T03:58:45.807Z,10.18
2023-03-21T04:04:03.750Z,10.90
2023-03-21T04:09:21.898Z,10.77
2023-03-21T04:14:42.028Z,11.63
2023-03-21T04:19:48.090Z,10.07
2023-03-21T04:24:51.665Z,11.15
2023-03-21T04:29:56.446Z,11.32
2023-03-21T04:35:23.390Z,10.10
2023-03-21T04:40:27.379Z,10.40
2023-03-21T04:45:31.965Z,11.23
2023-03-21T04:50:37.262Z,10.15
2023-03-21T04:55:40.579Z,10.27
2023-03-21T05:00:43.716Z,10.38
2023-03-21T05:05:48.208Z,10.18
2023-03-21T05:10:51.736Z,10.70
2023-03-21T05:15:56.910Z,10.18
2023-03-21T05:21:01.092Z,8.88
2023-03-21T05:26:08.855Z,7.07
2023-03-21T05:31:25.843Z,5.85
2023-03-21T05:36:40.219Z,5.90
2023-03-21T05:41:46.334Z,6.13
2023-03-21T05:46:50.267Z,5.95
2023-03-21T05:51:56.567Z,6.40
2023-03-21T05:57:01.660Z,5.65
2023-03-21T06:02:24.373Z,4.30
2023-03-21T06:07:30.177Z,4.13
2023-03-21T06:12:33.560Z,3.78
2023-03-21T06:17:55.030Z,3.97
2023-03-21T06:22:59.146Z,4.18
2023-03-21T06:28:03.127Z,3.95
2023-03-21T06:33:07.558Z,3.25
2023-03-21T06:38:12.060Z,2.80
2023-03-21T06:43:16.968Z,3.05
2023-03-21T06:48:21.084Z,2.70
2023-03-21T06:53:30.398Z,2.83
2023-03-21T06:58:59.151Z,3.42
2023-03-21T07:04:21.461Z,3.50
2023-03-21T07:09:28.483Z,3.67
2023-03-21T07:14:36.685Z,4.00
2023-03-21T07:19:40.534Z,3.55
2023-03-21T07:24:47.268Z,4.97
2023-03-21T07:29:52.765Z,4.38
2023-03-21T07:34:56.961Z,4.53
2023-03-21T07:40:01.246Z,4.47
2023-03-21T07:45:05.899Z,5.00
2023-03-21T07:50:11.147Z,5.15
2023-03-21T07:55:15.060Z,3.80
2023-03-21T08:00:23.336Z,4.45
2023-03-21T08:05:30.434Z,4.07
2023-03-21T08:10:34.665Z,4.55
2023-03-21T08:15:38.381Z,5.25
2023-03-21T08:20:42.384Z,4.20
2023-03-21T08:25:47.205Z,4.45
2023-03-21T08:30:51.539Z,3.88
2023-03-21T08:35:55.345Z,3.58
2023-03-21T08:41:00.738Z,3.53
2023-03-21T08:46:04.748Z,3.03
2023-03-21T08:51:08.740Z,3.13
2023-03-21T08:56:13.122Z,3.63
2023-03-21T09:01:16.450Z,3.60
2023-03-21T09:06:20.553Z,3.53
2023-03-21T09:11:24.120Z,3.50
2023-03-21T09:16:29.964Z,4.10
2023-03-21T09:21:34.026Z,4.03
2023-03-21T09:26:37.652Z,4.03
2023-03-21T09:37:21.475Z,4.20
2023-03-21T09:42:43.595Z,4.50
2023-03-21T09:47:57.412Z,4.03
2023-03-21T09:53:10.477Z,3.28
2023-03-21T09:58:53.237Z,3.22
2023-03-21T10:04:00.648Z,3.63
2023-03-21T10:09:07.979Z,3.92
2023-03-21T10:14:19.894Z,5.32
2023-03-21T10:19:23.828Z,4.25
2023-03-21T10:24:29.883Z,5.28
2023-03-21T10:29:44.047Z,4.77
2023-03-21T10:34:57.728Z,5.22
2023-03-21T10:40:03.639Z,5.35
2023-03-21T10:45:16.111Z,5.25
2023-03-21T10:50:25.938Z,5.00
2023-03-21T10:55:34.757Z,4.55
2023-03-21T11:00:41.624Z,5.18
2023-03-21T11:11:08.326Z,4.28
2023-03-21T11:16:19.895Z,3.67
2023-03-21T11:21:29.695Z,4.90
2023-03-21T11:26:37.012Z,3.20
2023-03-21T11:31:41.520Z,3.10
2023-03-21T11:36:51.179Z,4.13
2023-03-21T11:41:54.751Z,5.00
2023-03-21T11:46:59.125Z,5.03
2023-03-21T11:52:24.665Z,4.72
2023-03-21T11:57:42.539Z,4.78
2023-03-21T12:03:22.521Z,4.65
2023-03-21T12:08:38.600Z,4.75
2023-03-21T12:13:56.284Z,5.32
2023-03-21T12:19:29.116Z,4.38
2023-03-21T12:24:41.378Z,5.20
2023-03-21T12:29:54.204Z,5.13
2023-03-21T12:35:39.728Z,5.50
2023-03-21T12:41:11.854Z,5.57
2023-03-21T12:46:24.288Z,6.15
2023-03-21T12:51:33.038Z,5.30
2023-03-21T12:57:07.706Z,5.40
2023-03-21T13:02:32.117Z,5.95
2023-03-21T13:07:40.140Z,6.07
2023-03-21T13:12:51.649Z,6.50
2023-03-21T13:18:10.344Z,5.45
2023-03-21T13:23:14.854Z,5.93
2023-03-21T13:28:27.809Z,5.22
2023-03-21T13:33:33.349Z,4.50
2023-03-21T13:38:40.427Z,5.63
2023-03-21T13:43:56.046Z,5.22
2023-03-21T13:49:00.462Z,4.90
2023-03-21T13:54:07.573Z,4.82
2023-03-21T13:59:12.859Z,3.63
2023-03-21T14:04:32.212Z,3.30
2023-03-21T14:09:50.097Z,4.07
2023-03-21T14:15:14.146Z,4.20
2023-03-21T14:20:26.683Z,4.88
2023-03-21T14:25:40.954Z,4.70
2023-03-21T14:30:56.534Z,5.90
2023-03-21T14:36:04.831Z,5.65
2023-03-21T14:41:24.050Z,5.40
2023-03-21T14:46:27.958Z,4.88
2023-03-21T14:51:32.338Z,5.10
2023-03-21T14:56:37.752Z,6.28
2023-03-21T15:01:41.890Z,5.93
2023-03-21T15:06:54.207Z,7.22
2023-03-21T15:11:58.902Z,7.82
2023-03-21T15:17:05.363Z,7.18
2023-03-21T15:22:18.030Z,8.07
2023-03-21T15:27:25.938Z,9.32
2023-03-21T15:32:30.149Z,7.40
2023-03-21T15:37:36.913Z,6.47
2023-03-21T15:42:41.850Z,6.72
2023-03-21T15:47:59.965Z,5.82
2023-03-21T15:53:13.482Z,7.65
2023-03-21T15:58:23.866Z,7.15
2023-03-21T16:03:36.914Z,10.88
2023-03-21T16:08:54.035Z,13.73
2023-03-21T16:13:57.341Z,14.65
2023-03-21T16:19:02.078Z,13.82
2023-03-21T16:24:11.536Z,13.90
2023-03-21T16:29:16.567Z,11.95
2023-03-21T16:34:19.651Z,13.93
2023-03-21T16:39:26.573Z,13.27
2023-03-21T16:44:30.873Z,12.40
2023-03-21T16:49:33.995Z,13.05
2023-03-21T16:54:37.789Z,12.40
2023-03-21T16:59:42.127Z,12.95
2023-03-21T17:04:46.521Z,13.95
2023-03-21T17:09:50.170Z,12.18
2023-03-21T17:14:53.787Z,14.60
2023-03-21T17:19:57.291Z,14.48
2023-03-21T17:25:03.424Z,16.35
2023-03-21T17:30:21.681Z,14.20
2023-03-21T17:35:27.097Z,12.63
2023-03-21T17:40:32.922Z,11.27
2023-03-21T17:45:37.042Z,13.05
2023-03-21T17:50:41.146Z,14.10
2023-03-21T17:55:44.940Z,13.57
2023-03-21T18:00:48.136Z,18.52
2023-03-21T18:05:51.935Z,17.45
2023-03-21T18:10:55.068Z,17.88
2023-03-21T18:15:59.766Z,16.90
2023-03-21T18:21:03.994Z,17.25
2023-03-21T18:26:09.924Z,18.77
2023-03-21T18:31:20.086Z,18.27
2023-03-21T18:36:27.875Z,18.95
2023-03-21T18:41:32.486Z,18.88
2023-03-21T18:46:37.687Z,20.08
2023-03-21T18:51:41.313Z,19.42
2023-03-21T18:57:27.705Z,19.05
2023-03-21T19:02:14.263Z,20.05
2023-03-21T19:07:18.136Z,20.90
2023-03-21T19:12:21.780Z,21.05
2023-03-21T19:22:48.146Z,24.15
2023-03-21T19:27:52.313Z,22.27
2023-03-21T19:32:56.361Z,23.83
2023-03-21T19:37:59.489Z,22.40
2023-03-21T19:43:21.454Z,24.35
2023-03-21T19:48:28.157Z,22.35
2023-03-21T19:53:31.910Z,23.55
2023-03-21T19:58:35.718Z,22.95
2023-03-21T20:03:39.414Z,22.75
2023-03-21T20:09:13.637Z,21.10
2023-03-21T20:14:07.384Z,21.77
2023-03-21T20:19:13.703Z,21.13
2023-03-21T20:24:18.161Z,18.45
2023-03-21T20:34:47.092Z,16.73
2023-03-21T20:39:50.260Z,17.35
2023-03-21T20:44:58.972Z,16.20
2023-03-21T20:50:03.558Z,17.33
2023-03-21T20:55:09.473Z,19.20
2023-03-21T21:00:15.385Z,16.10
2023-03-21T21:05:35.437Z,17.65
2023-03-21T21:11:00.517Z,18.02
2023-03-21T21:16:05.396Z,18.40
2023-03-21T21:21:09.385Z,18.83
2023-03-21T21:26:13.215Z,19.95
2023-03-21T21:31:18.978Z,19.35
2023-03-21T21:36:23.025Z,19.52
2023-03-21T21:41:26.105Z,20.02
2023-03-21T21:46:29.250Z,18.83
2023-03-21T21:51:34.359Z,17.52
2023-03-21T21:56:38.279Z,18.00
2023-03-21T22:01:42.808Z,18.75
2023-03-21T22:06:48.013Z,17.02
2023-03-21T22:11:51.932Z,17.13
2023-03-21T22:16:56.653Z,15.07
2023-03-21T22:22:00.786Z,17.23
2023-03-21T22:27:04.753Z,15.48
2023-03-21T22:32:08.390Z,15.18
2023-03-21T22:37:12.945Z,15.75
2023-03-21T22:42:17.323Z,13.07
2023-03-21T22:47:21.614Z,14.68
2023-03-21T22:52:26.511Z,13.63
2023-03-21T22:57:30.078Z,12.65
2023-03-21T23:02:34.099Z,10.43
2023-03-21T23:07:37.663Z,10.73
2023-03-21T23:12:42.273Z,10.05
2023-03-21T23:17:46.269Z,9.38
2023-03-21T23:22:50.512Z,10.25
2023-03-21T23:27:54.616Z,10.20
2023-03-21T23:32:58.575Z,9.63
2023-03-21T23:38:02.807Z,9.75
2023-03-21T23:43:06.709Z,10.27
2023-03-21T23:48:10.575Z,10.73
2023-03-21T23:53:14.173Z,10.68
2023-03-21T23:58:17.808Z,10.40
